createdAt,value
2022-10-06T00:00:02.505Z,95.45
2022-10-06T00:01:02.600Z,95.86
2022-10-06T00:02:02.461Z,95.65
2022-10-06T00:03:03.144Z,96.52
2022-10-06T00:04:02.558Z,95.96
2022-10-06T00:05:02.432Z,94.73
2022-10-06T00:06:02.435Z,94.62
2022-10-06T00:07:02.426Z,94.42
2022-10-06T00:08:03.342Z,94.21
2022-10-06T00:09:02.397Z,94.42
2022-10-06T00:10:02.380Z,94.42
2022-10-06T00:11:02.338Z,94.42
2022-10-06T00:12:02.333Z,94.42
2022-10-06T00:13:02.298Z,94.73
2022-10-06T00:14:02.347Z,95.24
2022-10-06T00:15:02.325Z,94.62
2022-10-06T00:16:02.358Z,94.62
2022-10-06T00:17:02.330Z,95.14
2022-10-06T00:18:02.258Z,95.14
2022-10-06T00:19:02.266Z,95.55
2022-10-06T00:20:02.344Z,95.24
2022-10-06T00:21:02.261Z,95.24
2022-10-06T00:22:02.232Z,95.03
2022-10-06T00:23:02.209Z,95.70
2022-10-06T00:24:02.239Z,95.34
2022-10-06T00:25:02.256Z,95.34
2022-10-06T00:26:02.188Z,94.98
2022-10-06T00:27:02.176Z,94.98
2022-10-06T00:28:02.235Z,95.59
2022-10-06T00:29:02.135Z,95.39
2022-10-06T00:30:02.135Z,95.90
2022-10-06T00:31:02.145Z,95.70
2022-10-06T00:32:02.194Z,95.49
2022-10-06T00:33:02.817Z,95.70
2022-10-06T00:34:02.195Z,95.80
2022-10-06T00:35:02.101Z,96.11
2022-10-06T00:36:02.075Z,96.42
2022-10-06T00:37:02.033Z,96.52
2022-10-06T00:38:02.100Z,96.52
2022-10-06T00:39:02.032Z,97.03
2022-10-06T00:40:02.123Z,96.52
2022-10-06T00:41:02.069Z,96.83
2022-10-06T00:42:02.034Z,97.14
2022-10-06T00:43:01.996Z,97.14
2022-10-06T00:44:02.061Z,97.55
2022-10-06T00:45:01.966Z,97.69
2022-10-06T00:46:02.003Z,97.28
2022-10-06T00:47:01.983Z,97.39
2022-10-06T00:48:01.929Z,97.69
2022-10-06T00:49:01.928Z,97.80
2022-10-06T00:50:01.920Z,97.90
2022-10-06T00:51:02.005Z,97.80
2022-10-06T00:52:01.880Z,97.80
2022-10-06T00:53:01.985Z,97.80
2022-10-06T00:54:01.860Z,97.69
2022-10-06T00:55:01.857Z,97.69
2022-10-06T00:56:01.899Z,97.18
2022-10-06T00:57:01.822Z,96.77
2022-10-06T00:58:01.822Z,96.77
2022-10-06T00:59:01.970Z,96.88
2022-10-06T01:00:01.833Z,96.77
2022-10-06T01:01:01.805Z,96.77
2022-10-06T01:02:01.846Z,96.88
2022-10-06T01:03:01.817Z,97.13
2022-10-06T01:04:01.794Z,97.23
2022-10-06T01:05:01.772Z,97.33
2022-10-06T01:06:01.765Z,97.33
2022-10-06T01:07:01.719Z,97.33
2022-10-06T01:08:01.778Z,97.64
2022-10-06T01:09:01.688Z,97.53
2022-10-06T01:10:01.727Z,97.33
2022-10-06T01:11:01.668Z,97.53
2022-10-06T01:12:01.673Z,97.74
2022-10-06T01:13:01.651Z,97.74
2022-10-06T01:14:01.780Z,97.43
2022-10-06T01:15:01.665Z,97.38
2022-10-06T01:16:01.688Z,97.38
2022-10-06T01:17:01.630Z,97.48
2022-10-06T01:18:01.609Z,97.89
2022-10-06T01:19:01.752Z,97.89
2022-10-06T01:20:01.554Z,97.89
2022-10-06T01:21:01.553Z,97.99
2022-10-06T01:22:01.602Z,98.10
2022-10-06T01:23:01.542Z,98.20
2022-10-06T01:24:01.533Z,98.50
2022-10-06T01:25:01.533Z,99.07
2022-10-06T01:26:01.528Z,99.27
2022-10-06T01:27:01.548Z,99.48
2022-10-06T01:28:01.581Z,99.79
2022-10-06T01:29:01.525Z,99.99
2022-10-06T01:30:01.447Z,99.99
2022-10-06T01:31:01.523Z,99.99
2022-10-06T01:32:01.484Z,99.99
2022-10-06T01:33:01.413Z,99.99
2022-10-06T01:34:01.404Z,99.99
2022-10-06T01:35:01.509Z,99.99
2022-10-06T01:36:01.400Z,99.99
2022-10-06T01:37:01.482Z,99.99
2022-10-06T01:38:01.391Z,99.99
2022-10-06T01:39:01.338Z,99.99
2022-10-06T01:40:01.342Z,99.99
2022-10-06T01:41:02.377Z,99.99
2022-10-06T01:42:01.338Z,99.99
2022-10-06T01:43:01.302Z,99.99
2022-10-06T01:44:01.304Z,99.99
2022-10-06T01:45:01.388Z,99.99
2022-10-06T01:46:01.310Z,99.99
2022-10-06T01:47:01.316Z,99.99
2022-10-06T01:48:01.320Z,99.99
2022-10-06T01:49:01.269Z,99.99
2022-10-06T01:50:01.250Z,99.99
2022-10-06T01:51:01.215Z,99.99
2022-10-06T01:52:01.195Z,99.93
2022-10-06T01:53:01.234Z,98.90
2022-10-06T01:54:01.227Z,97.76
2022-10-06T01:55:01.171Z,96.06
2022-10-06T01:56:01.143Z,95.65
2022-10-06T01:57:01.144Z,95.03
2022-10-06T01:58:01.152Z,94.42
2022-10-06T01:59:01.119Z,94.72
2022-10-06T02:00:01.137Z,95.24
2022-10-06T02:01:01.101Z,94.82
2022-10-06T02:02:01.282Z,94.82
2022-10-06T02:03:01.106Z,95.24
2022-10-06T02:04:01.120Z,95.14
2022-10-06T02:05:01.062Z,96.17
2022-10-06T02:06:01.064Z,97.55
2022-10-06T02:07:01.051Z,96.94
2022-10-06T02:08:01.111Z,97.25
2022-10-06T02:09:01.169Z,96.73
2022-10-06T02:10:01.031Z,96.21
2022-10-06T02:11:01.948Z,94.62
2022-10-06T02:12:01.175Z,95.96
2022-10-06T02:13:00.965Z,95.65
2022-10-06T02:14:01.091Z,95.80
2022-10-06T02:15:00.960Z,96.21
2022-10-06T02:16:01.111Z,96.62
2022-10-06T02:17:00.937Z,96.94
2022-10-06T02:18:00.967Z,96.73
2022-10-06T02:19:00.890Z,97.29
2022-10-06T02:20:00.901Z,97.71
2022-10-06T02:21:00.889Z,97.60
2022-10-06T02:22:00.864Z,97.71
2022-10-06T02:23:00.863Z,97.91
2022-10-06T02:24:00.889Z,98.27
2022-10-06T02:25:00.857Z,98.88
2022-10-06T02:26:00.810Z,98.99
2022-10-06T02:27:00.812Z,98.99
2022-10-06T02:28:00.911Z,99.24
2022-10-06T02:29:00.787Z,99.55
2022-10-06T02:30:01.722Z,99.76
2022-10-06T02:31:00.792Z,99.99
2022-10-06T02:32:00.739Z,99.99
2022-10-06T02:33:00.779Z,99.99
2022-10-06T02:34:00.765Z,99.99
2022-10-06T02:35:00.718Z,99.99
2022-10-06T02:36:00.707Z,99.99
2022-10-06T02:37:00.716Z,99.99
2022-10-06T02:38:00.677Z,99.99
2022-10-06T02:39:00.690Z,99.99
2022-10-06T02:40:00.728Z,99.99
2022-10-06T02:41:00.640Z,99.99
2022-10-06T02:42:00.692Z,99.99
2022-10-06T02:43:00.630Z,99.99
2022-10-06T02:44:00.619Z,99.99
2022-10-06T02:45:00.679Z,99.99
2022-10-06T02:46:00.607Z,99.99
2022-10-06T02:47:00.581Z,99.99
2022-10-06T02:48:00.627Z,99.99
2022-10-06T02:49:00.586Z,99.99
2022-10-06T02:50:00.699Z,99.99
2022-10-06T02:51:00.539Z,99.99
2022-10-06T02:52:00.530Z,99.99
2022-10-06T02:53:00.563Z,99.99
2022-10-06T02:54:00.508Z,99.99
2022-10-06T02:55:00.528Z,99.99
2022-10-06T02:56:00.478Z,99.99
2022-10-06T02:57:00.486Z,99.14
2022-10-06T02:58:00.464Z,98.31
2022-10-06T02:59:00.458Z,98.10
2022-10-06T03:00:00.532Z,97.89
2022-10-06T03:01:00.421Z,97.59
2022-10-06T03:02:00.612Z,97.89
2022-10-06T03:03:00.469Z,97.69
2022-10-06T03:04:00.402Z,97.89
2022-10-06T03:05:00.393Z,98.05
2022-10-06T03:06:00.398Z,98.25
2022-10-06T03:07:00.495Z,98.46
2022-10-06T03:08:00.342Z,98.66
2022-10-06T03:09:00.358Z,98.15
2022-10-06T03:10:00.356Z,97.32
2022-10-06T03:11:00.304Z,95.73
2022-10-06T03:12:00.341Z,94.90
2022-10-06T03:13:00.311Z,93.93
2022-10-06T03:14:00.306Z,93.30
2022-10-06T03:15:00.604Z,92.64
2022-10-06T03:16:00.358Z,93.20
2022-10-06T03:17:00.298Z,92.58
2022-10-06T03:18:00.219Z,92.38
2022-10-06T03:19:00.311Z,92.38
2022-10-06T03:20:00.271Z,91.92
2022-10-06T03:21:00.224Z,91.82
2022-10-06T03:22:00.191Z,91.61
2022-10-06T03:23:00.232Z,91.30
2022-10-06T03:24:00.149Z,91.65
2022-10-06T03:25:00.163Z,92.27
2022-10-06T03:26:00.146Z,91.75
2022-10-06T03:27:00.196Z,91.86
2022-10-06T03:28:00.282Z,92.99
2022-10-06T03:29:00.158Z,93.72
2022-10-06T03:30:00.124Z,92.42
2022-10-06T03:31:00.126Z,93.04
2022-10-06T03:32:00.105Z,92.93
2022-10-06T03:33:00.100Z,94.38
2022-10-06T03:34:00.085Z,94.90
2022-10-06T03:35:00.130Z,95.04
2022-10-06T03:36:00.032Z,94.63
2022-10-06T03:37:00.046Z,95.56
2022-10-06T03:38:00.096Z,95.92
2022-10-06T03:38:59.991Z,96.64
2022-10-06T03:39:59.990Z,96.95
2022-10-06T03:40:59.976Z,96.95
2022-10-06T03:41:59.975Z,97.20
2022-10-06T03:42:59.949Z,97.31
2022-10-06T03:44:00.466Z,97.52
2022-10-06T03:44:59.933Z,98.13
2022-10-06T03:45:59.951Z,98.91
2022-10-06T03:47:00.064Z,98.91
2022-10-06T03:47:59.892Z,98.80
2022-10-06T03:48:59.893Z,98.80
2022-10-06T03:49:59.972Z,99.05
2022-10-06T03:50:59.880Z,99.37
2022-10-06T03:51:59.851Z,99.47
2022-10-06T03:52:59.822Z,99.37
2022-10-06T03:53:59.861Z,99.47
2022-10-06T03:54:59.834Z,99.62
2022-10-06T03:55:59.813Z,99.62
2022-10-06T03:56:59.816Z,99.72
2022-10-06T03:57:59.819Z,99.99
2022-10-06T03:58:59.800Z,99.99
2022-10-06T03:59:59.840Z,99.99
2022-10-06T04:00:59.779Z,99.99
2022-10-06T04:01:59.784Z,99.99
2022-10-06T04:02:59.743Z,99.99
2022-10-06T04:03:59.736Z,99.99
2022-10-06T04:04:59.743Z,99.99
2022-10-06T04:05:59.770Z,99.99
2022-10-06T04:06:59.663Z,99.99
2022-10-06T04:07:59.742Z,99.99
2022-10-06T04:08:59.680Z,99.99
2022-10-06T04:09:59.700Z,99.99
2022-10-06T04:10:59.642Z,99.99
2022-10-06T04:11:59.666Z,99.99
2022-10-06T04:12:59.670Z,99.99
2022-10-06T04:13:59.615Z,99.99
2022-10-06T04:15:00.318Z,99.99
2022-10-06T04:15:59.588Z,99.99
2022-10-06T04:16:59.559Z,99.99
2022-10-06T04:17:59.634Z,99.99
2022-10-06T04:18:59.568Z,99.99
2022-10-06T04:19:59.568Z,99.99
2022-10-06T04:20:59.565Z,99.99
2022-10-06T04:21:59.528Z,99.99
2022-10-06T04:22:59.568Z,99.99
2022-10-06T04:23:59.491Z,99.99
2022-10-06T04:25:00.419Z,99.99
2022-10-06T04:25:59.492Z,99.99
2022-10-06T04:26:59.503Z,99.99
2022-10-06T04:27:59.469Z,99.99
2022-10-06T04:28:59.485Z,99.99
2022-10-06T04:29:59.443Z,99.99
2022-10-06T04:30:59.433Z,99.99
2022-10-06T04:31:59.522Z,99.99
2022-10-06T04:32:59.443Z,99.99
2022-10-06T04:33:59.422Z,99.99
2022-10-06T04:34:59.386Z,99.99
2022-10-06T04:35:59.389Z,99.99
2022-10-06T04:36:59.406Z,99.99
2022-10-06T04:37:59.382Z,99.99
2022-10-06T04:38:59.426Z,99.99
2022-10-06T04:39:59.369Z,99.99
2022-10-06T04:40:59.301Z,99.99
2022-10-06T04:41:59.288Z,99.99
2022-10-06T04:42:59.366Z,99.99
2022-10-06T04:43:59.272Z,99.99
2022-10-06T04:44:59.257Z,99.99
2022-10-06T04:45:59.301Z,99.99
2022-10-06T04:46:59.309Z,99.99
2022-10-06T04:47:59.238Z,99.99
2022-10-06T04:48:59.236Z,99.99
2022-10-06T04:49:59.191Z,99.99
2022-10-06T04:50:59.268Z,99.99
2022-10-06T04:51:59.169Z,99.99
2022-10-06T04:52:59.173Z,99.99
2022-10-06T04:53:59.189Z,99.99
2022-10-06T04:54:59.140Z,99.99
2022-10-06T04:55:59.160Z,99.99
2022-10-06T04:56:59.148Z,99.99
2022-10-06T04:57:59.194Z,99.99
2022-10-06T04:58:59.094Z,99.99
2022-10-06T05:00:05.031Z,99.99
2022-10-06T05:00:59.117Z,99.99
2022-10-06T05:01:59.226Z,99.99
2022-10-06T05:02:59.050Z,99.99
2022-10-06T05:03:59.072Z,99.99
2022-10-06T05:04:59.065Z,99.99
2022-10-06T05:05:59.019Z,99.99
2022-10-06T05:06:59.034Z,99.99
2022-10-06T05:07:59.023Z,99.99
2022-10-06T05:08:59.025Z,99.99
2022-10-06T05:09:58.998Z,99.92
2022-10-06T05:10:58.981Z,99.99
2022-10-06T05:11:59.079Z,99.87
2022-10-06T05:12:58.981Z,99.98
2022-10-06T05:13:58.992Z,99.41
2022-10-06T05:14:59.458Z,99.00
2022-10-06T05:15:58.950Z,97.65
2022-10-06T05:16:58.924Z,98.38
2022-10-06T05:17:58.916Z,98.52
2022-10-06T05:18:58.895Z,98.32
2022-10-06T05:19:58.963Z,98.52
2022-10-06T05:21:02.044Z,98.94
2022-10-06T05:21:58.880Z,98.63
2022-10-06T05:22:58.839Z,98.21
2022-10-06T05:23:58.892Z,98.73
2022-10-06T05:24:58.900Z,98.52
2022-10-06T05:25:58.805Z,98.83
2022-10-06T05:27:01.762Z,98.52
2022-10-06T05:27:58.845Z,98.52
2022-10-06T05:28:58.794Z,97.69
2022-10-06T05:29:58.794Z,97.80
2022-10-06T05:30:58.909Z,97.28
2022-10-06T05:31:58.783Z,97.24
2022-10-06T05:32:58.760Z,96.92
2022-10-06T05:33:58.755Z,97.13
2022-10-06T05:34:58.733Z,96.82
2022-10-06T05:35:58.720Z,94.60
2022-10-06T05:36:58.680Z,94.70
2022-10-06T05:37:58.701Z,95.53
2022-10-06T05:38:58.648Z,95.43
2022-10-06T05:39:58.751Z,95.74
2022-10-06T05:40:58.684Z,95.64
2022-10-06T05:41:58.631Z,95.64
2022-10-06T05:42:58.671Z,95.43
2022-10-06T05:43:58.605Z,95.64
2022-10-06T05:44:58.631Z,96.15
2022-10-06T05:45:58.652Z,96.20
2022-10-06T05:46:58.564Z,96.30
2022-10-06T05:47:58.581Z,96.61
2022-10-06T05:49:00.033Z,96.61
2022-10-06T05:49:58.539Z,96.09
2022-10-06T05:50:58.538Z,95.47
2022-10-06T05:51:58.568Z,96.09
2022-10-06T05:52:58.489Z,97.03
2022-10-06T05:53:58.649Z,97.55
2022-10-06T05:54:58.546Z,97.86
2022-10-06T05:55:58.468Z,98.00
2022-10-06T05:56:58.540Z,97.90
2022-10-06T05:57:58.561Z,97.80
2022-10-06T05:58:58.473Z,98.21
2022-10-06T05:59:58.427Z,98.52
2022-10-06T06:00:58.453Z,98.94
2022-10-06T06:01:58.467Z,98.83
2022-10-06T06:02:58.443Z,98.42
2022-10-06T06:03:58.387Z,99.35
2022-10-06T06:04:58.352Z,99.77
2022-10-06T06:05:58.433Z,99.66
2022-10-06T06:06:58.432Z,99.99
2022-10-06T06:07:58.319Z,99.99
2022-10-06T06:08:58.319Z,99.99
2022-10-06T06:09:58.343Z,99.87
2022-10-06T06:10:58.515Z,99.77
2022-10-06T06:11:58.274Z,99.41
2022-10-06T06:12:58.737Z,99.31
2022-10-06T06:13:58.267Z,99.41
2022-10-06T06:14:58.931Z,98.90
2022-10-06T06:15:58.279Z,99.10
2022-10-06T06:16:58.313Z,99.00
2022-10-06T06:17:58.303Z,98.79
2022-10-06T06:18:58.321Z,98.38
2022-10-06T06:19:58.204Z,97.24
2022-10-06T06:20:58.213Z,97.65
2022-10-06T06:21:58.279Z,98.58
2022-10-06T06:22:58.147Z,99.05
2022-10-06T06:23:58.172Z,98.74
2022-10-06T06:24:58.178Z,97.77
2022-10-06T06:26:02.291Z,97.35
2022-10-06T06:26:58.156Z,97.45
2022-10-06T06:27:59.233Z,97.25
2022-10-06T06:28:58.133Z,97.97
2022-10-06T06:29:58.091Z,98.08
2022-10-06T06:30:58.165Z,98.08
2022-10-06T06:31:58.070Z,98.28
2022-10-06T06:32:58.157Z,98.39
2022-10-06T06:33:58.064Z,98.18
2022-10-06T06:34:58.078Z,97.77
2022-10-06T06:35:58.084Z,97.66
2022-10-06T06:37:03.607Z,97.87
2022-10-06T06:37:57.999Z,98.08
2022-10-06T06:38:57.994Z,97.66
2022-10-06T06:39:58.039Z,97.56
2022-10-06T06:40:57.956Z,97.97
2022-10-06T06:41:57.969Z,97.83
2022-10-06T06:42:58.070Z,97.52
2022-10-06T06:43:57.944Z,97.41
2022-10-06T06:44:57.915Z,95.96
2022-10-06T06:45:58.350Z,95.81
2022-10-06T06:46:57.925Z,95.81
2022-10-06T06:47:57.889Z,95.92
2022-10-06T06:48:57.892Z,95.29
2022-10-06T06:49:57.952Z,95.25
2022-10-06T06:50:57.868Z,94.73
2022-10-06T06:51:57.866Z,93.70
2022-10-06T06:52:58.043Z,90.04
2022-10-06T06:53:58.563Z,89.17
2022-10-06T06:54:57.900Z,88.82
2022-10-06T06:55:57.830Z,87.37
2022-10-06T06:56:57.809Z,85.41
2022-10-06T06:57:57.942Z,85.62
2022-10-06T06:58:57.844Z,85.47
2022-10-06T06:59:57.745Z,85.99
2022-10-06T07:00:57.810Z,85.89
2022-10-06T07:01:57.827Z,84.03
2022-10-06T07:02:57.706Z,83.00
2022-10-06T07:03:58.761Z,84.61
2022-10-06T07:04:57.718Z,85.99
2022-10-06T07:05:58.588Z,86.36
2022-10-06T07:06:57.714Z,84.09
2022-10-06T07:07:57.758Z,85.44
2022-10-06T07:08:57.780Z,85.75
2022-10-06T07:09:57.676Z,86.05
2022-10-06T07:10:57.640Z,86.78
2022-10-06T07:11:57.726Z,86.47
2022-10-06T07:12:57.619Z,86.68
2022-10-06T07:13:57.644Z,85.02
2022-10-06T07:14:57.630Z,85.85
2022-10-06T07:15:57.689Z,86.16
2022-10-06T07:16:57.658Z,86.88
2022-10-06T07:17:57.584Z,87.29
2022-10-06T07:18:57.581Z,85.85
2022-10-06T07:19:57.613Z,85.75
2022-10-06T07:20:57.505Z,86.98
2022-10-06T07:21:57.511Z,87.40
2022-10-06T07:22:57.506Z,87.71
2022-10-06T07:23:57.487Z,88.32
2022-10-06T07:24:57.495Z,88.95
2022-10-06T07:25:57.534Z,89.15
2022-10-06T07:26:57.452Z,88.43
2022-10-06T07:27:57.573Z,86.47
2022-10-06T07:28:57.495Z,86.98
2022-10-06T07:29:57.511Z,87.40
2022-10-06T07:30:57.516Z,86.68
2022-10-06T07:31:57.525Z,85.95
2022-10-06T07:32:57.438Z,85.64
2022-10-06T07:33:57.394Z,84.92
2022-10-06T07:34:57.393Z,85.13
2022-10-06T07:35:57.373Z,84.61
2022-10-06T07:36:57.357Z,83.68
2022-10-06T07:37:57.314Z,83.99
2022-10-06T07:38:57.343Z,84.09
2022-10-06T07:39:57.296Z,83.68
2022-10-06T07:41:57.313Z,82.96
2022-10-06T07:42:57.288Z,82.86
2022-10-06T07:43:57.249Z,82.82
2022-10-06T07:44:57.248Z,83.06
2022-10-06T07:45:57.322Z,83.64
2022-10-06T07:46:57.264Z,82.30
2022-10-06T07:47:57.262Z,82.51
2022-10-06T07:48:57.983Z,83.54
2022-10-06T07:49:57.197Z,82.71
2022-10-06T07:50:57.227Z,82.30
2022-10-06T07:51:57.288Z,82.61
2022-10-06T07:52:57.142Z,82.61
2022-10-06T07:53:57.205Z,82.71
2022-10-06T07:54:57.157Z,82.20
2022-10-06T07:55:57.111Z,81.58
2022-10-06T07:56:57.126Z,82.20
2022-10-06T07:57:57.109Z,81.99
2022-10-06T07:58:57.100Z,82.30
2022-10-06T08:00:01.946Z,82.30
2022-10-06T08:00:57.055Z,83.44
2022-10-06T08:01:57.126Z,83.33
2022-10-06T08:02:57.147Z,83.95
2022-10-06T08:03:57.011Z,84.94
2022-10-06T08:04:57.042Z,83.29
2022-10-06T08:05:57.004Z,84.33
2022-10-06T08:06:56.981Z,84.33
2022-10-06T08:07:56.994Z,81.54
2022-10-06T08:08:56.993Z,81.65
2022-10-06T08:09:57.007Z,82.98
2022-10-06T08:10:58.343Z,81.96
2022-10-06T08:11:56.956Z,82.37
2022-10-06T08:12:56.933Z,82.89
2022-10-06T08:13:56.943Z,82.57
2022-10-06T08:14:57.263Z,81.85
2022-10-06T08:15:57.077Z,81.34
2022-10-06T08:16:56.937Z,81.85
2022-10-06T08:17:56.865Z,80.93
2022-10-06T08:18:56.843Z,82.06
2022-10-06T08:19:56.832Z,82.26
2022-10-06T08:20:56.843Z,82.57
2022-10-06T08:21:59.876Z,82.12
2022-10-06T08:22:56.861Z,80.68
2022-10-06T08:23:56.845Z,81.92
2022-10-06T08:25:05.853Z,82.23
2022-10-06T08:25:56.790Z,81.51
2022-10-06T08:26:56.799Z,82.23
2022-10-06T08:27:56.773Z,82.84
2022-10-06T08:28:56.737Z,80.47
2022-10-06T08:29:56.869Z,81.61
2022-10-06T08:30:56.840Z,82.54
2022-10-06T08:31:56.977Z,81.92
2022-10-06T08:32:56.727Z,81.20
2022-10-06T08:33:56.915Z,80.89
2022-10-06T08:34:57.439Z,81.09
2022-10-06T08:35:56.661Z,79.34
2022-10-06T08:37:18.778Z,80.58
2022-10-06T08:37:56.724Z,82.64
2022-10-06T08:38:56.661Z,82.43
2022-10-06T08:39:56.616Z,81.40
2022-10-06T08:40:56.628Z,81.16
2022-10-06T08:41:56.618Z,83.12
2022-10-06T08:42:56.626Z,83.22
2022-10-06T08:43:56.626Z,81.37
2022-10-06T08:44:57.070Z,81.37
2022-10-06T08:45:56.655Z,81.84
2022-10-06T08:46:56.558Z,81.43
2022-10-06T08:47:56.605Z,82.15
2022-10-06T08:48:56.517Z,79.68
2022-10-06T08:49:57.159Z,81.53
2022-10-06T08:50:56.502Z,81.74
2022-10-06T08:51:56.492Z,80.40
2022-10-06T08:52:56.518Z,79.88
2022-10-06T08:53:56.498Z,81.43
2022-10-06T08:54:56.490Z,81.02
2022-10-06T08:55:56.461Z,80.88
2022-10-06T08:56:56.472Z,81.23
2022-10-06T08:57:56.441Z,81.53
2022-10-06T08:58:56.409Z,80.09
2022-10-06T08:59:57.646Z,80.30
2022-10-06T09:00:56.510Z,78.75
2022-10-06T09:01:56.528Z,80.40
2022-10-06T09:02:56.369Z,80.71
2022-10-06T09:03:57.096Z,81.49
2022-10-06T09:04:56.338Z,81.49
2022-10-06T09:05:56.351Z,80.98
2022-10-06T09:06:56.393Z,81.39
2022-10-06T09:07:56.968Z,80.47
2022-10-06T09:08:56.360Z,81.39
2022-10-06T09:09:56.785Z,80.77
2022-10-06T09:10:56.301Z,80.26
2022-10-06T09:11:56.321Z,80.47
2022-10-06T09:12:56.329Z,80.05
2022-10-06T09:13:56.267Z,81.67
2022-10-06T09:14:56.279Z,81.05
2022-10-06T09:15:56.256Z,80.33
2022-10-06T09:16:56.184Z,80.12
2022-10-06T09:17:56.260Z,80.22
2022-10-06T09:19:08.115Z,79.09
2022-10-06T09:19:56.520Z,79.09
2022-10-06T09:20:56.156Z,78.17
2022-10-06T09:21:56.184Z,79.71
2022-10-06T09:22:57.171Z,80.02
2022-10-06T09:23:56.229Z,80.08
2022-10-06T09:24:56.236Z,79.88
2022-10-06T09:25:56.121Z,78.75
2022-10-06T09:26:56.159Z,79.36
2022-10-06T09:27:56.169Z,80.29
2022-10-06T09:28:56.116Z,79.98
2022-10-06T09:29:56.407Z,80.19
2022-10-06T09:30:56.175Z,79.47
2022-10-06T09:31:56.191Z,80.29
2022-10-06T09:32:56.081Z,80.49
2022-10-06T09:33:56.033Z,80.91
2022-10-06T09:34:56.084Z,81.11
2022-10-06T09:35:57.072Z,80.91
2022-10-06T09:37:00.925Z,81.21
2022-10-06T09:37:55.999Z,79.67
2022-10-06T09:38:55.945Z,81.01
2022-10-06T09:39:56.286Z,77.92
2022-10-06T09:40:55.956Z,79.47
2022-10-06T09:41:55.923Z,79.67
2022-10-06T09:42:55.924Z,77.92
2022-10-06T09:43:55.951Z,78.61
2022-10-06T09:44:55.930Z,76.76
2022-10-06T09:45:56.235Z,76.55
2022-10-06T09:46:55.940Z,76.76
2022-10-06T09:47:55.859Z,76.55
2022-10-06T09:48:55.850Z,75.83
2022-10-06T09:49:56.190Z,76.55
2022-10-06T09:50:55.833Z,76.62
2022-10-06T09:51:55.908Z,76.21
2022-10-06T09:52:55.859Z,76.42
2022-10-06T09:53:55.814Z,77.95
2022-10-06T09:54:55.842Z,77.13
2022-10-06T09:55:55.770Z,76.72
2022-10-06T09:56:55.756Z,77.61
2022-10-06T09:57:55.785Z,77.20
2022-10-06T09:58:55.866Z,77.92
2022-10-06T09:59:55.879Z,77.30
2022-10-06T10:00:55.840Z,75.56
2022-10-06T10:01:55.730Z,76.68
2022-10-06T10:02:55.939Z,75.87
2022-10-06T10:04:18.661Z,75.76
2022-10-06T10:04:55.683Z,75.76
2022-10-06T10:05:55.689Z,76.28
2022-10-06T10:06:55.646Z,76.79
2022-10-06T10:07:55.643Z,77.58
2022-10-06T10:08:56.162Z,76.65
2022-10-06T10:09:56.017Z,77.37
2022-10-06T10:10:55.769Z,78.50
2022-10-06T10:11:55.618Z,76.55
2022-10-06T10:12:55.658Z,76.45
2022-10-06T10:13:55.573Z,76.55
2022-10-06T10:14:55.544Z,77.37
2022-10-06T10:15:55.633Z,77.26
2022-10-06T10:16:55.551Z,76.31
2022-10-06T10:17:55.541Z,76.75
2022-10-06T10:18:55.624Z,76.00
2022-10-06T10:19:56.002Z,74.40
2022-10-06T10:20:55.524Z,74.19
2022-10-06T10:21:55.508Z,74.19
2022-10-06T10:22:55.484Z,74.19
2022-10-06T10:23:55.581Z,74.60
2022-10-06T10:24:55.529Z,74.80
2022-10-06T10:25:55.449Z,74.60
2022-10-06T10:26:55.411Z,73.57
2022-10-06T10:27:55.519Z,72.44
2022-10-06T10:28:55.548Z,72.34
2022-10-06T10:29:55.690Z,72.03
2022-10-06T10:30:55.445Z,71.18
2022-10-06T10:31:55.455Z,70.26
2022-10-06T10:32:55.391Z,70.97
2022-10-06T10:34:11.947Z,70.46
2022-10-06T10:34:55.731Z,70.36
2022-10-06T10:35:55.319Z,69.23
2022-10-06T10:36:55.306Z,69.74
2022-10-06T10:37:56.374Z,69.64
2022-10-06T10:38:55.285Z,69.64
2022-10-06T10:39:55.410Z,69.64
2022-10-06T10:40:55.299Z,69.13
2022-10-06T10:41:55.268Z,69.20
2022-10-06T10:42:55.254Z,69.10
2022-10-06T10:43:55.257Z,70.12
2022-10-06T10:44:55.615Z,70.53
2022-10-06T10:45:55.225Z,70.02
2022-10-06T10:46:55.369Z,69.61
2022-10-06T10:47:55.210Z,69.92
2022-10-06T10:48:55.233Z,70.02
2022-10-06T10:49:55.186Z,70.64
2022-10-06T10:50:55.221Z,70.64
2022-10-06T10:51:55.234Z,69.61
2022-10-06T10:52:55.145Z,70.02
2022-10-06T10:53:55.134Z,69.10
2022-10-06T10:54:55.393Z,69.40
2022-10-06T10:55:55.466Z,69.30
2022-10-06T10:56:55.202Z,69.20
2022-10-06T10:57:55.173Z,68.99
2022-10-06T10:58:55.064Z,68.89
2022-10-06T10:59:55.131Z,69.51
2022-10-06T11:00:55.079Z,69.40
2022-10-06T11:01:55.114Z,69.51
2022-10-06T11:02:55.060Z,69.40
2022-10-06T11:03:55.096Z,69.61
2022-10-06T11:04:55.150Z,69.40
2022-10-06T11:05:55.063Z,70.22
2022-10-06T11:06:55.678Z,70.32
2022-10-06T11:07:55.012Z,70.43
2022-10-06T11:08:54.975Z,70.32
2022-10-06T11:09:54.983Z,70.12
2022-10-06T11:10:54.934Z,69.92
2022-10-06T11:11:54.918Z,69.06
2022-10-06T11:12:54.893Z,69.06
2022-10-06T11:13:54.877Z,69.47
2022-10-06T11:14:54.940Z,69.78
2022-10-06T11:15:55.254Z,69.68
2022-10-06T11:16:54.904Z,68.96
2022-10-06T11:17:54.858Z,68.55
2022-10-06T11:18:54.867Z,68.76
2022-10-06T11:19:54.927Z,68.93
2022-10-06T11:20:54.954Z,68.52
2022-10-06T11:21:54.819Z,68.62
2022-10-06T11:22:54.772Z,69.44
2022-10-06T11:23:54.891Z,68.83
2022-10-06T11:24:54.774Z,67.80
2022-10-06T11:25:54.817Z,67.80
2022-10-06T11:26:54.816Z,68.52
2022-10-06T11:27:54.764Z,68.41
2022-10-06T11:28:54.717Z,68.11
2022-10-06T11:29:54.720Z,67.90
2022-10-06T11:30:54.719Z,67.90
2022-10-06T11:31:54.798Z,67.80
2022-10-06T11:32:54.675Z,68.11
2022-10-06T11:33:54.806Z,67.49
2022-10-06T11:34:54.673Z,68.11
2022-10-06T11:35:54.763Z,68.08
2022-10-06T11:36:54.614Z,68.08
2022-10-06T11:37:54.624Z,67.05
2022-10-06T11:38:54.639Z,66.64
2022-10-06T11:39:54.623Z,66.95
2022-10-06T11:40:54.596Z,66.54
2022-10-06T11:41:54.842Z,66.54
2022-10-06T11:42:54.665Z,66.54
2022-10-06T11:43:54.581Z,66.51
2022-10-06T11:44:54.645Z,66.61
2022-10-06T11:45:54.710Z,66.31
2022-10-06T11:46:54.540Z,66.10
2022-10-06T11:47:54.534Z,66.31
2022-10-06T11:48:54.538Z,64.98
2022-10-06T11:49:54.473Z,65.01
2022-10-06T11:50:54.556Z,64.87
2022-10-06T11:51:58.336Z,64.77
2022-10-06T11:52:54.461Z,65.49
2022-10-06T11:53:54.487Z,65.69
2022-10-06T11:54:54.422Z,64.87
2022-10-06T11:55:54.408Z,65.59
2022-10-06T11:56:54.431Z,66.61
2022-10-06T11:57:54.381Z,66.00
2022-10-06T11:58:54.391Z,65.08
2022-10-06T11:59:54.354Z,64.06
2022-10-06T12:00:54.370Z,64.77
2022-10-06T12:01:54.481Z,64.87
2022-10-06T12:02:54.506Z,65.08
2022-10-06T12:03:54.364Z,65.39
2022-10-06T12:04:54.345Z,65.08
2022-10-06T12:05:56.827Z,66.34
2022-10-06T12:06:54.272Z,66.13
2022-10-06T12:07:54.261Z,66.13
2022-10-06T12:08:54.267Z,66.85
2022-10-06T12:09:54.264Z,67.05
2022-10-06T12:10:54.240Z,67.36
2022-10-06T12:11:54.318Z,66.95
2022-10-06T12:13:21.231Z,67.57
2022-10-06T12:15:26.869Z,67.87
2022-10-06T12:17:15.557Z,68.28
2022-10-06T12:17:46.757Z,66.34
2022-10-06T12:18:46.698Z,65.72
2022-10-06T12:19:46.700Z,65.62
2022-10-06T12:20:46.681Z,66.24
2022-10-06T12:21:46.690Z,65.62
2022-10-06T12:22:46.667Z,65.18
2022-10-06T12:23:46.671Z,65.18
2022-10-06T12:24:46.646Z,65.80
2022-10-06T12:25:46.642Z,65.69
2022-10-06T12:26:46.638Z,66.92
2022-10-06T12:27:46.619Z,66.72
2022-10-06T12:28:46.632Z,67.33
2022-10-06T12:29:46.607Z,67.13
2022-10-06T12:30:46.598Z,66.92
2022-10-06T12:31:46.627Z,65.80
2022-10-06T12:32:46.613Z,63.47
2022-10-06T12:33:46.537Z,63.47
2022-10-06T12:34:46.529Z,63.37
2022-10-06T12:35:46.538Z,63.68
2022-10-06T12:36:46.515Z,63.47
2022-10-06T12:37:51.495Z,62.76
2022-10-06T12:38:46.532Z,62.65
2022-10-06T12:39:46.474Z,63.98
2022-10-06T12:40:46.465Z,64.39
2022-10-06T12:41:46.491Z,64.09
2022-10-06T12:42:46.412Z,65.11
2022-10-06T12:43:46.420Z,64.80
2022-10-06T12:44:46.477Z,65.31
2022-10-06T12:45:46.690Z,65.93
2022-10-06T12:46:46.496Z,65.93
2022-10-06T12:47:46.560Z,65.42
2022-10-06T12:48:46.430Z,65.72
2022-10-06T12:49:46.428Z,66.57
2022-10-06T12:50:46.378Z,65.75
2022-10-06T12:51:46.348Z,64.62
2022-10-06T12:52:46.466Z,65.04
2022-10-06T12:53:46.352Z,66.98
2022-10-06T12:54:46.279Z,67.90